createdAt,value
2022-08-08T00:00:54.008Z,10.05
2022-08-08T00:02:43.260Z,8.60
2022-08-08T00:05:17.290Z,9.85
2022-08-08T00:08:04.165Z,11.80
2022-08-08T00:10:49.746Z,7.35
2022-08-08T00:14:17.206Z,13.55
2022-08-08T00:16:11.846Z,8.07
2022-08-08T00:18:50.631Z,11.68
2022-08-08T00:21:24.641Z,8.15
2022-08-08T00:23:56.539Z,8.13
2022-08-08T00:26:29.319Z,11.25
2022-08-08T00:29:01.507Z,7.75
2022-08-08T00:32:20.293Z,9.32
2022-08-08T00:34:46.207Z,8.00
2022-08-08T00:37:46.926Z,8.68
2022-08-08T00:41:12.596Z,9.18
2022-08-08T00:43:11.841Z,8.30
2022-08-08T00:46:17.017Z,6.00
2022-08-08T00:49:01.090Z,5.85
2022-08-08T00:51:38.335Z,7.55
2022-08-08T00:54:28.887Z,9.02
2022-08-08T00:56:59.274Z,8.50
2022-08-08T00:59:44.786Z,10.30
2022-08-08T01:03:58.547Z,12.93
2022-08-08T01:05:58.660Z,7.60
2022-08-08T01:08:32.913Z,9.80
2022-08-08T01:11:12.157Z,10.07
2022-08-08T01:14:00.821Z,8.23
2022-08-08T01:16:29.125Z,7.47
2022-08-08T01:19:11.719Z,9.68
2022-08-08T01:22:10.038Z,8.82
2022-08-08T01:24:40.754Z,9.60
2022-08-08T01:27:33.039Z,7.68
2022-08-08T01:30:31.202Z,10.02
2022-08-08T01:33:23.888Z,9.85
2022-08-08T01:36:18.773Z,9.07
2022-08-08T01:38:56.222Z,9.07
2022-08-08T01:41:43.797Z,7.78
2022-08-08T01:44:34.328Z,7.82
2022-08-08T01:48:16.000Z,5.93
2022-08-08T01:50:05.394Z,6.00
2022-08-08T01:53:14.973Z,8.07
2022-08-08T01:56:28.198Z,8.55
2022-08-08T01:58:38.783Z,7.20
2022-08-08T02:01:28.178Z,6.55
2022-08-08T02:04:32.058Z,11.27
2022-08-08T02:07:01.775Z,9.45
2022-08-08T02:10:01.478Z,8.00
2022-08-08T02:12:33.063Z,6.53
2022-08-08T02:15:11.182Z,7.97
2022-08-08T02:17:43.597Z,6.75
2022-08-08T02:21:03.230Z,9.45
2022-08-08T02:23:35.106Z,9.73
2022-08-08T02:26:08.138Z,9.88
2022-08-08T02:28:48.390Z,9.95
2022-08-08T02:31:58.340Z,8.93
2022-08-08T02:34:27.486Z,9.50
2022-08-08T02:37:00.713Z,8.57
2022-08-08T02:39:58.434Z,9.60
2022-08-08T02:42:26.382Z,7.10
2022-08-08T02:45:22.972Z,7.03
2022-08-08T02:48:25.837Z,7.80
2022-08-08T02:51:04.449Z,6.60
2022-08-08T02:53:56.861Z,9.80
2022-08-08T02:56:42.690Z,8.10
2022-08-08T03:00:01.603Z,10.73
2022-08-08T03:02:30.615Z,9.82
2022-08-08T03:05:09.127Z,7.65
2022-08-08T03:07:58.170Z,8.45
2022-08-08T03:10:44.786Z,10.38
2022-08-08T03:15:54.192Z,9.02
2022-08-08T03:16:12.991Z,9.57
2022-08-08T03:19:04.552Z,8.57
2022-08-08T03:21:40.811Z,6.80
2022-08-08T03:24:19.666Z,8.60
2022-08-08T03:26:52.429Z,9.77
2022-08-08T03:29:27.123Z,8.73
2022-08-08T03:32:32.146Z,9.07
2022-08-08T03:35:01.724Z,8.15
2022-08-08T03:38:54.462Z,7.90
2022-08-08T03:40:28.778Z,8.70
2022-08-08T03:43:16.712Z,11.45
2022-08-08T03:46:07.357Z,7.10
2022-08-08T03:49:09.701Z,9.63
2022-08-08T03:51:47.157Z,7.88
2022-08-08T03:54:40.848Z,6.28
2022-08-08T03:58:30.485Z,7.65
2022-08-08T03:59:59.563Z,9.02
2022-08-08T04:02:47.604Z,11.48
2022-08-08T04:05:27.340Z,10.70
2022-08-08T04:07:56.145Z,11.40
2022-08-08T04:10:24.517Z,15.18
2022-08-08T04:12:51.196Z,11.13
2022-08-08T04:15:17.845Z,11.02
2022-08-08T04:17:58.760Z,10.43
2022-08-08T04:20:28.329Z,9.65
2022-08-08T04:22:57.161Z,11.27
2022-08-08T04:25:29.651Z,9.60
2022-08-08T04:28:35.254Z,12.40
2022-08-08T04:30:44.987Z,13.77
2022-08-08T04:33:15.387Z,10.68
2022-08-08T04:35:50.823Z,10.73
2022-08-08T04:38:20.938Z,9.43
2022-08-08T04:40:53.957Z,11.73
2022-08-08T04:43:32.012Z,8.77
2022-08-08T04:46:11.616Z,9.40
2022-08-08T04:48:41.529Z,9.73
2022-08-08T04:51:09.053Z,8.85
2022-08-08T04:54:36.420Z,8.20
2022-08-08T04:56:22.374Z,9.10
2022-08-08T04:58:50.602Z,6.43
2022-08-08T05:01:18.461Z,12.63
2022-08-08T05:04:08.279Z,8.88
2022-08-08T05:06:39.919Z,9.52
2022-08-08T05:09:07.918Z,8.63
2022-08-08T05:11:38.766Z,8.77
2022-08-08T05:14:08.759Z,7.05
2022-08-08T05:16:54.999Z,8.25
2022-08-08T05:20:09.691Z,8.60
2022-08-08T05:22:13.325Z,6.50
2022-08-08T05:24:48.234Z,7.80
2022-08-08T05:27:16.559Z,6.85
2022-08-08T05:29:43.070Z,8.77
2022-08-08T05:32:12.778Z,9.07
2022-08-08T05:34:49.249Z,9.40
2022-08-08T05:37:28.290Z,10.40
2022-08-08T05:40:06.470Z,8.90
2022-08-08T05:42:39.468Z,7.18
2022-08-08T05:45:10.405Z,6.43
2022-08-08T05:48:00.569Z,5.63
2022-08-08T05:50:30.027Z,5.93
2022-08-08T05:53:54.695Z,4.27
2022-08-08T05:56:09.531Z,8.23
2022-08-08T05:58:39.845Z,4.53
2022-08-08T06:01:52.527Z,4.72
2022-08-08T06:04:13.909Z,7.18
2022-08-08T06:06:52.080Z,6.72
2022-08-08T06:09:59.383Z,6.85
2022-08-08T06:12:09.475Z,3.30
2022-08-08T06:14:47.776Z,4.53
2022-08-08T06:17:21.102Z,6.13
2022-08-08T06:20:04.995Z,4.47
2022-08-08T06:22:38.723Z,4.93
2022-08-08T06:25:14.853Z,3.78
2022-08-08T06:27:48.455Z,4.85
2022-08-08T06:30:20.157Z,3.90
2022-08-08T06:32:57.729Z,7.22
2022-08-08T06:36:07.627Z,3.85
2022-08-08T06:38:17.202Z,3.90
2022-08-08T06:40:53.945Z,3.35
2022-08-08T06:43:30.577Z,3.25
2022-08-08T06:46:04.083Z,6.50
2022-08-08T06:48:30.784Z,2.47
2022-08-08T06:50:59.312Z,5.07
2022-08-08T06:53:39.299Z,5.25
2022-08-08T06:56:09.318Z,3.88
2022-08-08T06:58:37.005Z,3.47
2022-08-08T07:01:24.563Z,5.53
2022-08-08T07:04:40.498Z,4.25
2022-08-08T07:06:58.016Z,2.33
2022-08-08T07:09:45.444Z,4.68
2022-08-08T07:12:36.005Z,4.85
2022-08-08T07:15:19.634Z,7.82
2022-08-08T07:18:01.754Z,2.80
2022-08-08T07:20:50.444Z,6.43
2022-08-08T07:23:24.257Z,3.28
2022-08-08T07:25:55.958Z,4.38
2022-08-08T07:28:31.678Z,3.28
2022-08-08T07:31:01.299Z,2.90
2022-08-08T07:33:38.166Z,5.07
2022-08-08T07:36:19.165Z,5.28
2022-08-08T07:38:51.472Z,3.78
2022-08-08T07:41:25.059Z,4.97
2022-08-08T07:43:57.504Z,4.60
2022-08-08T07:46:30.535Z,2.92
2022-08-08T07:49:06.580Z,6.57
2022-08-08T07:51:44.759Z,3.83
2022-08-08T07:54:29.085Z,4.07
2022-08-08T07:57:08.980Z,5.05
2022-08-08T07:59:45.802Z,4.78
2022-08-08T08:02:36.671Z,3.60
2022-08-08T08:05:14.994Z,4.05
2022-08-08T08:07:45.870Z,3.50
2022-08-08T08:10:15.957Z,3.10
2022-08-08T08:12:47.127Z,2.20
2022-08-08T08:15:18.233Z,4.35
2022-08-08T08:17:55.909Z,5.32
2022-08-08T08:20:30.275Z,5.25
2022-08-08T08:22:58.482Z,3.42
2022-08-08T08:25:40.734Z,4.65
2022-08-08T08:28:11.383Z,6.03
2022-08-08T08:30:48.490Z,4.65
2022-08-08T08:33:15.250Z,2.92
2022-08-08T08:36:19.663Z,3.53
2022-08-08T08:38:30.532Z,3.42
2022-08-08T08:41:13.027Z,5.68
2022-08-08T08:43:46.282Z,6.18
2022-08-08T08:46:15.216Z,3.63
2022-08-08T08:48:49.391Z,4.32
2022-08-08T08:51:17.843Z,5.40
2022-08-08T08:53:55.472Z,7.47
2022-08-08T08:56:29.748Z,2.88
2022-08-08T08:59:07.096Z,2.63
2022-08-08T09:01:37.676Z,4.95
2022-08-08T09:04:31.017Z,4.05
2022-08-08T09:07:12.869Z,2.33
2022-08-08T09:09:57.263Z,2.72
2022-08-08T09:12:31.530Z,2.58
2022-08-08T09:14:59.024Z,2.78
2022-08-08T09:17:40.840Z,3.25
2022-08-08T09:21:56.519Z,3.17
2022-08-08T09:22:59.078Z,2.17
2022-08-08T09:25:35.581Z,2.58
2022-08-08T09:28:13.463Z,3.58
2022-08-08T09:31:12.735Z,2.30
2022-08-08T09:34:14.957Z,4.85
2022-08-08T09:36:31.941Z,3.15
2022-08-08T09:39:00.053Z,2.90
2022-08-08T09:41:54.798Z,1.80
2022-08-08T09:44:45.758Z,3.38
2022-08-08T09:47:25.940Z,2.55
2022-08-08T09:50:05.643Z,2.20
2022-08-08T09:53:05.719Z,1.10
2022-08-08T09:55:51.705Z,2.53
2022-08-08T09:58:26.339Z,1.00
2022-08-08T10:01:03.236Z,3.40
2022-08-08T10:03:41.995Z,3.35
2022-08-08T10:06:15.486Z,2.80
2022-08-08T10:08:47.940Z,1.35
2022-08-08T10:12:27.004Z,1.00
2022-08-08T10:14:07.388Z,1.58
2022-08-08T10:16:54.681Z,2.35
2022-08-08T10:19:21.054Z,1.50
2022-08-08T10:21:51.315Z,1.40
2022-08-08T10:24:29.555Z,1.05
2022-08-08T10:27:01.064Z,2.95
2022-08-08T10:29:56.722Z,2.10
2022-08-08T10:32:32.917Z,3.40
2022-08-08T10:35:11.816Z,1.88
2022-08-08T10:38:00.469Z,2.05
2022-08-08T10:40:30.831Z,3.47
2022-08-08T10:43:03.841Z,2.60
2022-08-08T10:45:41.861Z,2.38
2022-08-08T10:48:10.501Z,3.80
2022-08-08T10:50:38.068Z,3.00
2022-08-08T10:53:07.711Z,1.13
2022-08-08T10:55:45.670Z,3.58
2022-08-08T10:58:13.269Z,2.03
2022-08-08T11:00:53.351Z,2.20
2022-08-08T11:03:37.096Z,5.38
2022-08-08T11:06:15.564Z,2.10
2022-08-08T11:08:53.505Z,1.58
2022-08-08T11:11:32.109Z,2.20
2022-08-08T11:14:07.538Z,1.85
2022-08-08T11:19:06.201Z,1.83
2022-08-08T11:21:41.358Z,2.65
2022-08-08T11:24:11.329Z,2.15
2022-08-08T11:26:56.671Z,2.30
2022-08-08T11:29:41.596Z,2.17
2022-08-08T11:32:13.318Z,1.27
2022-08-08T11:35:07.357Z,0.77
2022-08-08T11:38:36.446Z,2.05
2022-08-08T11:40:16.006Z,1.45
2022-08-08T11:42:50.844Z,2.05
2022-08-08T11:45:20.523Z,4.50
2022-08-08T11:50:32.405Z,3.58
2022-08-08T11:53:00.769Z,1.05
2022-08-08T11:55:35.330Z,2.05
2022-08-08T11:58:15.318Z,2.70
2022-08-08T12:00:50.204Z,1.45
2022-08-08T12:03:21.873Z,1.63
2022-08-08T12:05:48.620Z,1.15
2022-08-08T12:08:16.002Z,1.40
2022-08-08T12:10:47.722Z,1.58
2022-08-08T12:13:15.077Z,4.28
2022-08-08T12:15:49.292Z,3.53
2022-08-08T12:18:24.564Z,3.38
2022-08-08T12:20:53.385Z,4.13
2022-08-08T12:24:00.189Z,2.70
2022-08-08T12:26:36.097Z,1.60
2022-08-08T12:29:17.157Z,3.63
2022-08-08T12:31:53.839Z,2.42
2022-08-08T12:34:33.184Z,2.17
2022-08-08T12:37:05.175Z,1.88
2022-08-08T12:42:21.548Z,2.75
2022-08-08T12:44:50.395Z,1.92
2022-08-08T12:47:57.969Z,3.85
2022-08-08T12:50:13.021Z,3.33
2022-08-08T12:52:42.458Z,4.50
2022-08-08T12:55:13.654Z,3.03
2022-08-08T12:57:49.853Z,5.43
2022-08-08T13:00:33.779Z,2.55
2022-08-08T13:03:01.850Z,1.80
2022-08-08T13:06:02.773Z,4.13
2022-08-08T13:08:16.200Z,1.75
2022-08-08T13:10:56.691Z,2.00
2022-08-08T13:13:28.807Z,1.80
2022-08-08T13:16:20.839Z,2.35
2022-08-08T13:18:57.044Z,3.42
2022-08-08T13:21:48.531Z,1.40
2022-08-08T13:24:18.566Z,1.45
2022-08-08T13:27:01.191Z,4.95
2022-08-08T13:29:27.567Z,8.20
2022-08-08T13:32:07.594Z,1.95
2022-08-08T13:34:38.037Z,1.63
2022-08-08T13:37:11.038Z,0.80
2022-08-08T13:39:50.464Z,1.23
2022-08-08T13:42:18.496Z,4.82
2022-08-08T13:44:53.657Z,5.22
2022-08-08T13:47:20.033Z,3.67
2022-08-08T13:50:37.542Z,0.93
2022-08-08T13:52:48.304Z,1.90
2022-08-08T13:55:29.004Z,3.63
2022-08-08T13:58:08.302Z,5.20
2022-08-08T14:00:45.470Z,1.70
2022-08-08T14:03:52.354Z,3.15
2022-08-08T14:06:09.035Z,2.08
2022-08-08T14:08:56.666Z,1.92
2022-08-08T14:11:24.313Z,4.72
2022-08-08T14:14:00.284Z,1.67
2022-08-08T14:16:28.483Z,2.92
2022-08-08T14:18:55.009Z,4.38
2022-08-08T14:21:22.314Z,1.17
2022-08-08T14:24:07.795Z,3.20
2022-08-08T14:26:42.990Z,2.75
2022-08-08T14:29:27.997Z,2.33
2022-08-08T14:32:10.820Z,2.58
2022-08-08T14:34:39.912Z,5.03
2022-08-08T14:37:09.822Z,1.25
2022-08-08T14:39:47.575Z,2.47
2022-08-08T14:42:16.765Z,1.25
2022-08-08T14:44:52.994Z,1.48
2022-08-08T14:47:21.329Z,2.05
2022-08-08T14:50:06.726Z,1.45
2022-08-08T14:52:42.876Z,2.10
2022-08-08T14:55:10.450Z,2.33
2022-08-08T14:58:03.594Z,2.05
2022-08-08T15:00:26.247Z,2.28
2022-08-08T15:03:14.550Z,1.48
2022-08-08T15:05:54.073Z,3.50
2022-08-08T15:08:35.385Z,4.18
2022-08-08T15:11:10.240Z,3.75
2022-08-08T15:13:41.078Z,0.95
2022-08-08T15:16:24.228Z,2.40
2022-08-08T15:18:51.794Z,2.35
2022-08-08T15:21:18.856Z,0.70
2022-08-08T15:23:51.040Z,1.92
2022-08-08T15:26:18.248Z,6.55
2022-08-08T15:28:44.642Z,1.20
2022-08-08T15:31:11.732Z,1.48
2022-08-08T15:33:58.844Z,2.03
2022-08-08T15:36:28.631Z,2.00
2022-08-08T15:38:55.391Z,1.02
2022-08-08T15:41:24.811Z,3.10
2022-08-08T15:44:00.878Z,1.80
2022-08-08T15:49:01.344Z,1.90
2022-08-08T15:51:32.759Z,1.63
2022-08-08T15:54:00.560Z,2.92
2022-08-08T15:56:26.983Z,1.00
2022-08-08T15:58:53.416Z,2.35
2022-08-08T16:01:21.102Z,1.23
2022-08-08T16:03:51.940Z,2.58
2022-08-08T16:06:28.213Z,1.65
2022-08-08T16:13:00.089Z,3.47
2022-08-08T16:13:10.360Z,1.52
2022-08-08T16:14:33.153Z,1.40
2022-08-08T16:17:00.240Z,3.55
2022-08-08T16:19:27.162Z,2.70
2022-08-08T16:21:54.096Z,1.17
2022-08-08T16:24:22.954Z,4.00
2022-08-08T16:26:50.775Z,2.58
2022-08-08T16:29:19.423Z,2.05
2022-08-08T16:32:11.617Z,1.80
2022-08-08T16:34:40.143Z,3.25
2022-08-08T16:37:07.144Z,1.38
2022-08-08T16:40:01.258Z,3.17
2022-08-08T16:42:20.285Z,4.32
2022-08-08T16:44:54.190Z,2.13
2022-08-08T16:47:40.247Z,3.92
2022-08-08T16:50:13.820Z,3.35
2022-08-08T16:55:01.830Z,2.40
2022-08-08T16:55:55.675Z,1.63
2022-08-08T16:58:25.512Z,3.60
2022-08-08T17:00:53.407Z,1.67
2022-08-08T17:03:25.148Z,1.75
2022-08-08T17:06:37.304Z,4.95
2022-08-08T17:08:53.858Z,1.38
2022-08-08T17:11:20.371Z,2.33
2022-08-08T17:14:01.161Z,1.27
2022-08-08T17:16:28.905Z,3.60
2022-08-08T17:18:55.383Z,2.33
2022-08-08T17:21:22.888Z,3.60
2022-08-08T17:24:00.294Z,1.30
2022-08-08T17:26:29.346Z,1.15
2022-08-08T17:28:56.342Z,1.42
2022-08-08T17:31:44.487Z,2.65
2022-08-08T17:34:35.674Z,1.40
2022-08-08T17:37:02.842Z,2.50
2022-08-08T17:40:02.947Z,4.32
2022-08-08T17:42:18.154Z,2.03
2022-08-08T17:44:45.200Z,3.42
2022-08-08T17:47:23.365Z,0.85
2022-08-08T17:49:52.605Z,3.58
2022-08-08T17:52:20.037Z,2.53
2022-08-08T17:54:51.952Z,1.60
2022-08-08T17:57:23.314Z,2.30
2022-08-08T17:59:51.823Z,1.85
2022-08-08T18:02:29.014Z,5.45
2022-08-08T18:04:58.014Z,3.47
2022-08-08T18:08:04.011Z,1.52
2022-08-08T18:10:11.117Z,1.65
2022-08-08T18:12:37.709Z,1.42
2022-08-08T18:15:07.343Z,1.65
2022-08-08T18:18:09.446Z,4.50
2022-08-08T18:20:43.274Z,2.42
2022-08-08T18:23:14.584Z,2.25
2022-08-08T18:25:42.983Z,1.85
2022-08-08T18:28:13.442Z,1.75
2022-08-08T18:30:46.017Z,2.67
2022-08-08T18:33:20.046Z,1.17
2022-08-08T18:36:02.860Z,1.98
2022-08-08T18:38:30.618Z,0.77
2022-08-08T18:40:57.402Z,1.92
2022-08-08T18:43:25.125Z,2.55
2022-08-08T18:46:55.690Z,1.75
2022-08-08T18:48:55.636Z,1.88
2022-08-08T18:51:48.393Z,1.70
2022-08-08T18:54:22.155Z,2.75
2022-08-08T18:56:51.277Z,2.05
2022-08-08T18:59:17.844Z,3.08
2022-08-08T19:02:29.943Z,2.28
2022-08-08T19:04:56.627Z,3.55
2022-08-08T19:07:25.578Z,3.28
2022-08-08T19:10:14.431Z,1.63
2022-08-08T19:12:44.387Z,2.92
2022-08-08T19:15:11.227Z,1.88
2022-08-08T19:17:48.173Z,1.40
2022-08-08T19:20:24.965Z,1.88
2022-08-08T19:22:51.718Z,1.27
2022-08-08T19:26:20.231Z,1.48
2022-08-08T19:28:17.905Z,3.67
2022-08-08T19:31:03.350Z,2.20
2022-08-08T19:33:51.624Z,1.75
2022-08-08T19:36:16.937Z,3.80
2022-08-08T19:38:53.950Z,1.75
2022-08-08T19:41:21.471Z,2.13
2022-08-08T19:43:59.624Z,3.08
2022-08-08T19:46:33.217Z,3.03
2022-08-08T19:49:00.635Z,3.83
2022-08-08T19:51:34.680Z,3.35
2022-08-08T19:54:07.975Z,1.75
2022-08-08T19:56:40.546Z,4.18
2022-08-08T19:59:08.467Z,1.98
2022-08-08T20:01:59.830Z,2.47
2022-08-08T20:04:21.445Z,3.65
2022-08-08T20:06:50.713Z,2.15
2022-08-08T20:09:22.590Z,2.67
2022-08-08T20:11:49.820Z,3.65
2022-08-08T20:14:34.442Z,3.47
2022-08-08T20:17:02.596Z,6.53
2022-08-08T20:19:34.246Z,3.35
2022-08-08T20:22:13.253Z,3.22
2022-08-08T20:24:53.076Z,2.03
2022-08-08T20:27:21.087Z,2.70
2022-08-08T20:30:00.259Z,2.83
2022-08-08T20:32:28.361Z,5.25
2022-08-08T20:35:01.074Z,1.70
2022-08-08T20:37:47.225Z,2.53
2022-08-08T20:40:16.900Z,2.42
2022-08-08T20:42:54.858Z,4.50
2022-08-08T20:45:44.686Z,3.75
2022-08-08T20:48:08.214Z,2.63
2022-08-08T20:50:35.240Z,3.08
2022-08-08T20:53:01.737Z,3.38
2022-08-08T20:55:29.097Z,2.03
2022-08-08T20:58:02.361Z,4.13
2022-08-08T21:00:28.915Z,2.70
2022-08-08T21:02:56.899Z,5.40
2022-08-08T21:05:23.456Z,4.57
2022-08-08T21:08:34.334Z,3.42
2022-08-08T21:10:45.260Z,2.28
2022-08-08T21:13:11.633Z,5.63
2022-08-08T21:16:05.426Z,2.92
2022-08-08T21:18:24.761Z,2.25
2022-08-08T21:20:54.464Z,1.77
2022-08-08T21:23:25.059Z,3.13
2022-08-08T21:26:07.413Z,1.63
2022-08-08T21:28:36.259Z,3.90
2022-08-08T21:31:21.804Z,3.53
2022-08-08T21:33:49.680Z,3.05
2022-08-08T21:36:20.242Z,2.42
2022-08-08T21:38:47.468Z,1.85
2022-08-08T21:41:18.466Z,2.83
2022-08-08T21:44:00.321Z,3.70
2022-08-08T21:48:05.443Z,4.45
2022-08-08T21:49:16.606Z,3.58
2022-08-08T21:54:32.215Z,3.85
2022-08-08T21:54:53.827Z,2.55
2022-08-08T21:57:17.110Z,7.40
2022-08-08T22:00:02.518Z,2.08
2022-08-08T22:02:39.912Z,2.70
2022-08-08T22:05:09.511Z,2.05
2022-08-08T22:07:40.920Z,2.70
2022-08-08T22:10:28.510Z,3.20
2022-08-08T22:13:17.257Z,5.20
2022-08-08T22:15:59.720Z,4.78
2022-08-08T22:20:54.930Z,3.50
2022-08-08T22:23:25.475Z,3.03
2022-08-08T22:26:27.559Z,4.05
2022-08-08T22:29:13.734Z,2.90
2022-08-08T22:31:29.610Z,2.80
2022-08-08T22:34:13.642Z,4.38
2022-08-08T22:36:42.739Z,5.38
2022-08-08T22:39:09.568Z,5.88
2022-08-08T22:41:45.377Z,4.80
2022-08-08T22:44:11.805Z,2.80
2022-08-08T22:46:39.941Z,3.13
2022-08-08T22:49:06.805Z,4.30
2022-08-08T22:51:42.859Z,2.25
2022-08-08T22:54:34.178Z,4.65
2022-08-08T22:56:59.347Z,3.75
2022-08-08T22:59:25.842Z,3.65
2022-08-08T23:02:02.462Z,2.38
2022-08-08T23:04:32.334Z,4.53
2022-08-08T23:07:02.408Z,3.38
2022-08-08T23:09:30.353Z,4.18
2022-08-08T23:12:17.791Z,4.28
2022-08-08T23:14:53.462Z,2.95
2022-08-08T23:17:23.105Z,3.33
2022-08-08T23:19:56.675Z,4.47
2022-08-08T23:22:23.070Z,3.30
2022-08-08T23:24:50.546Z,4.03
2022-08-08T23:27:17.262Z,5.25
2022-08-08T23:30:04.310Z,3.08
2022-08-08T23:32:31.024Z,4.10
2022-08-08T23:34:59.711Z,2.42
2022-08-08T23:37:26.633Z,2.38
2022-08-08T23:40:13.159Z,4.97
2022-08-08T23:42:39.737Z,4.03
2022-08-08T23:45:12.461Z,6.13
2022-08-08T23:49:04.913Z,3.72
2022-08-08T23:50:31.078Z,4.45
2022-08-08T23:52:58.096Z,7.68
2022-08-08T23:55:26.232Z,6.35
2022-08-08T23:57:58.565Z,2.58
